createdAt,value
2018-12-18T00:01:38.761Z,10.00
2018-12-18T00:04:07.507Z,10.00
2018-12-18T00:06:36.142Z,9.80
2018-12-18T00:09:06.242Z,9.90
2018-12-18T00:11:34.946Z,9.70
2018-12-18T00:14:03.681Z,9.80
2018-12-18T00:16:32.228Z,9.70
2018-12-18T00:19:00.995Z,9.70
2018-12-18T00:21:29.858Z,9.70
2018-12-18T00:23:58.590Z,9.70
2018-12-18T00:26:27.248Z,9.60
2018-12-18T00:28:55.751Z,9.70
2018-12-18T00:31:24.442Z,9.60
2018-12-18T00:33:52.990Z,9.50
2018-12-18T00:36:21.608Z,9.60
2018-12-18T00:38:50.447Z,9.70
2018-12-18T00:41:19.151Z,9.60
2018-12-18T00:43:48.003Z,9.70
2018-12-18T00:46:16.563Z,9.80
2018-12-18T00:48:45.411Z,9.60
2018-12-18T00:51:14.186Z,9.80
2018-12-18T00:53:42.989Z,9.80
2018-12-18T00:56:11.709Z,9.70
2018-12-18T00:58:40.560Z,9.60
2018-12-18T01:01:09.281Z,9.60
2018-12-18T01:03:38.239Z,9.70
2018-12-18T01:06:07.021Z,9.60
2018-12-18T01:08:35.802Z,9.60
2018-12-18T01:11:04.529Z,9.80
2018-12-18T01:13:33.232Z,9.80
2018-12-18T01:16:01.972Z,9.80
2018-12-18T01:18:30.790Z,9.90
2018-12-18T01:20:59.426Z,10.00
2018-12-18T01:23:28.366Z,10.10
2018-12-18T01:25:57.224Z,10.10
2018-12-18T01:28:26.021Z,10.00
2018-12-18T01:30:54.902Z,10.00
2018-12-18T01:33:23.672Z,10.10
2018-12-18T01:35:52.380Z,10.00
2018-12-18T01:38:20.912Z,9.90
2018-12-18T01:40:49.848Z,10.00
2018-12-18T01:43:18.605Z,10.00
2018-12-18T01:45:47.206Z,10.00
2018-12-18T01:48:15.987Z,10.00
2018-12-18T01:50:44.679Z,10.10
2018-12-18T01:53:13.685Z,10.00
2018-12-18T01:55:42.554Z,10.20
2018-12-18T01:58:11.303Z,10.10
2018-12-18T02:00:40.326Z,10.10
2018-12-18T02:03:09.042Z,10.10
2018-12-18T02:05:37.902Z,10.00
2018-12-18T02:08:06.516Z,10.00
2018-12-18T02:10:37.202Z,10.10
2018-12-18T02:13:05.889Z,10.00
2018-12-18T02:15:34.470Z,10.20
2018-12-18T02:18:03.181Z,10.10
2018-12-18T02:20:31.973Z,10.10
2018-12-18T02:23:00.672Z,9.90
2018-12-18T02:25:29.420Z,10.00
2018-12-18T02:27:58.245Z,10.00
2018-12-18T02:30:26.998Z,10.00
2018-12-18T02:32:55.615Z,10.00
2018-12-18T02:35:24.504Z,10.00
2018-12-18T02:37:53.148Z,10.20
2018-12-18T02:40:22.074Z,10.30
2018-12-18T02:42:50.749Z,10.30
2018-12-18T02:45:19.382Z,10.40
2018-12-18T02:47:48.312Z,10.30
2018-12-18T02:50:17.102Z,10.30
2018-12-18T02:52:45.662Z,10.40
2018-12-18T02:55:15.384Z,10.50
2018-12-18T02:57:44.359Z,10.60
2018-12-18T03:00:13.202Z,10.60
2018-12-18T03:02:42.046Z,10.60
2018-12-18T03:05:10.526Z,10.80
2018-12-18T03:07:39.239Z,10.70
2018-12-18T03:10:08.253Z,10.80
2018-12-18T03:12:36.897Z,10.90
2018-12-18T03:15:05.846Z,10.90
2018-12-18T03:17:34.611Z,10.70
2018-12-18T03:20:03.794Z,10.70
2018-12-18T03:22:32.503Z,10.70
2018-12-18T03:25:01.262Z,10.70
2018-12-18T03:27:30.054Z,10.80
2018-12-18T03:29:58.753Z,10.70
2018-12-18T03:32:32.325Z,10.70
2018-12-18T03:35:01.134Z,10.60
2018-12-18T03:37:29.817Z,10.60
2018-12-18T03:39:58.412Z,10.60
2018-12-18T03:42:27.147Z,10.50
2018-12-18T03:44:55.871Z,10.50
2018-12-18T03:47:24.822Z,10.40
2018-12-18T03:49:53.560Z,10.50
2018-12-18T03:52:22.313Z,10.50
2018-12-18T03:54:51.046Z,10.70
2018-12-18T03:57:19.731Z,10.70
2018-12-18T03:59:48.524Z,10.60
2018-12-18T04:02:17.132Z,10.70
2018-12-18T04:04:45.910Z,10.70
2018-12-18T04:07:14.628Z,10.80
2018-12-18T04:09:43.246Z,10.60
2018-12-18T04:12:16.539Z,10.60
2018-12-18T04:14:45.325Z,10.60
2018-12-18T04:17:14.052Z,10.70
2018-12-18T04:19:42.600Z,10.70
2018-12-18T04:22:20.135Z,10.70
2018-12-18T04:24:57.518Z,10.70
2018-12-18T04:27:26.427Z,10.70
2018-12-18T04:29:55.153Z,10.70
2018-12-18T04:32:23.945Z,10.60
2018-12-18T04:34:52.728Z,10.60
2018-12-18T04:37:21.618Z,10.70
2018-12-18T04:39:50.509Z,10.70
2018-12-18T04:42:19.168Z,10.90
2018-12-18T04:44:47.737Z,10.90
2018-12-18T04:47:16.460Z,11.00
2018-12-18T04:49:45.145Z,11.10
2018-12-18T04:52:13.969Z,11.10
2018-12-18T04:54:42.498Z,11.00
2018-12-18T04:57:11.287Z,10.90
2018-12-18T04:59:40.240Z,11.00
2018-12-18T05:02:08.814Z,11.00
2018-12-18T05:04:37.599Z,11.10
2018-12-18T05:07:06.357Z,11.20
2018-12-18T05:09:35.138Z,11.20
2018-12-18T05:12:03.826Z,11.20
2018-12-18T05:14:32.426Z,11.20
2018-12-18T05:17:01.265Z,11.20
2018-12-18T05:19:29.900Z,11.20
2018-12-18T05:21:58.355Z,11.30
2018-12-18T05:24:27.229Z,11.30
2018-12-18T05:26:55.833Z,11.40
2018-12-18T05:29:24.665Z,11.40
2018-12-18T05:31:53.498Z,11.50
2018-12-18T05:34:28.971Z,11.40
2018-12-18T05:36:58.573Z,11.40
2018-12-18T05:39:27.313Z,11.20
2018-12-18T05:41:55.926Z,11.20
2018-12-18T05:44:24.483Z,11.20
2018-12-18T05:46:53.195Z,11.20
2018-12-18T05:49:21.877Z,11.20
2018-12-18T05:51:50.860Z,11.20
2018-12-18T05:54:19.507Z,11.30
2018-12-18T05:56:48.453Z,11.20
2018-12-18T05:59:17.224Z,11.10
2018-12-18T06:01:45.783Z,11.10
2018-12-18T06:04:14.401Z,11.20
2018-12-18T06:06:43.193Z,11.10
2018-12-18T06:09:11.920Z,11.20
2018-12-18T06:11:40.757Z,11.10
2018-12-18T06:14:09.562Z,11.00
2018-12-18T06:16:38.323Z,11.00
2018-12-18T06:19:06.824Z,11.10
2018-12-18T06:21:35.611Z,11.00
2018-12-18T06:24:04.410Z,11.10
2018-12-18T06:26:33.050Z,11.00
2018-12-18T06:29:01.798Z,11.10
2018-12-18T06:31:30.563Z,11.00
2018-12-18T06:33:59.324Z,11.10
2018-12-18T06:36:27.835Z,11.10
2018-12-18T06:38:56.378Z,11.10
2018-12-18T06:41:25.194Z,11.20
2018-12-18T06:43:53.990Z,11.30
2018-12-18T06:46:22.770Z,11.30
2018-12-18T06:48:51.510Z,11.30
2018-12-18T06:51:20.122Z,11.30
2018-12-18T06:53:48.744Z,11.30
2018-12-18T06:56:17.477Z,11.30
2018-12-18T06:58:46.195Z,11.40
2018-12-18T07:01:15.001Z,11.50
2018-12-18T07:03:43.646Z,11.50
2018-12-18T07:06:12.472Z,11.40
2018-12-18T07:08:41.346Z,11.40
2018-12-18T07:11:09.982Z,11.50
2018-12-18T07:13:38.668Z,11.50
2018-12-18T07:16:07.286Z,11.40
2018-12-18T07:18:36.241Z,11.40
2018-12-18T07:21:04.957Z,11.40
2018-12-18T07:23:33.597Z,11.30
2018-12-18T07:26:02.392Z,11.40
2018-12-18T07:28:31.101Z,11.50
2018-12-18T07:30:59.921Z,11.70
2018-12-18T07:33:28.612Z,11.80
2018-12-18T07:35:57.597Z,11.70
2018-12-18T07:38:26.293Z,11.60
2018-12-18T07:40:55.088Z,11.60
2018-12-18T07:43:23.859Z,11.60
2018-12-18T07:45:52.482Z,11.50
2018-12-18T07:48:21.211Z,11.50
2018-12-18T07:50:49.915Z,11.60
2018-12-18T07:53:18.716Z,11.60
2018-12-18T07:55:47.353Z,11.70
2018-12-18T07:58:16.073Z,11.60
2018-12-18T08:00:44.786Z,11.50
2018-12-18T08:03:13.327Z,11.60
2018-12-18T08:05:42.117Z,11.60
2018-12-18T08:08:10.873Z,11.50
2018-12-18T08:10:39.699Z,11.50
2018-12-18T08:13:08.388Z,11.50
2018-12-18T08:15:37.152Z,11.50
2018-12-18T08:18:05.695Z,11.40
2018-12-18T08:20:34.299Z,11.50
2018-12-18T08:23:02.992Z,11.50
2018-12-18T08:25:31.562Z,11.60
2018-12-18T08:28:00.584Z,11.40
2018-12-18T08:30:29.125Z,11.60
2018-12-18T08:32:57.870Z,11.40
2018-12-18T08:35:26.641Z,11.40
2018-12-18T08:37:55.277Z,11.60
2018-12-18T08:40:24.181Z,11.60
2018-12-18T08:42:52.781Z,11.70
2018-12-18T08:45:21.484Z,11.80
2018-12-18T08:47:50.098Z,11.90
2018-12-18T08:50:18.870Z,11.90
2018-12-18T08:52:47.663Z,11.80
2018-12-18T08:55:16.369Z,11.90
2018-12-18T08:57:45.205Z,11.80
2018-12-18T09:00:13.918Z,11.90
2018-12-18T09:02:42.807Z,12.10
2018-12-18T09:05:11.655Z,12.10
2018-12-18T09:07:40.467Z,12.70
2018-12-18T09:10:10.103Z,12.80
2018-12-18T09:12:38.859Z,12.90
2018-12-18T09:15:13.294Z,12.70
2018-12-18T09:17:45.922Z,12.60
2018-12-18T09:20:14.761Z,12.40
2018-12-18T09:22:43.636Z,12.20
2018-12-18T09:25:12.323Z,12.10
2018-12-18T09:27:41.262Z,12.10
2018-12-18T09:30:11.042Z,12.20
2018-12-18T09:32:39.663Z,12.10
2018-12-18T09:35:08.494Z,12.10
2018-12-18T09:37:37.201Z,12.30
2018-12-18T09:40:07.722Z,12.00
2018-12-18T09:42:42.091Z,12.10
2018-12-18T09:45:10.849Z,12.10
2018-12-18T09:47:39.780Z,12.00
2018-12-18T09:50:08.853Z,11.90
2018-12-18T09:52:37.538Z,11.90
2018-12-18T09:55:06.650Z,11.90
2018-12-18T09:57:42.058Z,12.00
2018-12-18T10:00:10.950Z,12.00
2018-12-18T10:02:39.632Z,12.20
2018-12-18T10:05:08.383Z,12.20
2018-12-18T10:07:36.985Z,12.20
2018-12-18T10:10:06.674Z,12.30
2018-12-18T10:12:40.910Z,12.30
2018-12-18T10:15:09.772Z,12.30
2018-12-18T10:17:38.472Z,12.40
2018-12-18T10:20:07.251Z,12.50
2018-12-18T10:22:35.952Z,12.40
2018-12-18T10:25:05.135Z,12.40
2018-12-18T10:27:33.783Z,12.50
2018-12-18T10:30:02.507Z,12.30
2018-12-18T10:32:31.253Z,12.20
2018-12-18T10:34:59.951Z,12.20
2018-12-18T10:37:28.743Z,12.10
2018-12-18T10:39:57.399Z,12.10
2018-12-18T10:42:26.273Z,12.00
2018-12-18T10:44:54.822Z,12.10
2018-12-18T10:47:23.550Z,12.20
2018-12-18T10:49:52.356Z,12.30
2018-12-18T10:52:20.881Z,12.30
2018-12-18T10:54:49.662Z,12.50
2018-12-18T10:57:18.469Z,13.20
2018-12-18T10:59:47.258Z,13.20
2018-12-18T11:02:16.130Z,13.50
2018-12-18T11:04:45.141Z,14.70
2018-12-18T11:07:13.935Z,14.50
2018-12-18T11:09:42.818Z,14.70
2018-12-18T11:12:11.589Z,15.00
2018-12-18T11:14:40.494Z,15.10
2018-12-18T11:17:09.264Z,14.30
2018-12-18T11:19:37.847Z,13.90
2018-12-18T11:22:06.735Z,13.50
2018-12-18T11:24:35.390Z,13.40
2018-12-18T11:27:04.188Z,13.20
2018-12-18T11:29:33.006Z,13.20
2018-12-18T11:32:01.802Z,13.00
2018-12-18T11:34:30.628Z,13.00
2018-12-18T11:36:59.376Z,12.90
2018-12-18T11:39:28.147Z,12.80
2018-12-18T11:41:56.956Z,12.50
2018-12-18T11:44:25.683Z,12.70
2018-12-18T11:46:54.411Z,12.70
2018-12-18T11:49:23.342Z,12.70
2018-12-18T11:51:52.054Z,12.60
2018-12-18T11:54:20.789Z,12.60
2018-12-18T11:56:49.542Z,12.70
2018-12-18T11:59:18.156Z,12.50
2018-12-18T12:01:47.242Z,12.50
2018-12-18T12:04:16.019Z,12.30
2018-12-18T12:06:44.805Z,12.20
2018-12-18T12:09:13.528Z,12.50
2018-12-18T12:11:42.364Z,12.40
2018-12-18T12:14:11.023Z,12.50
2018-12-18T12:16:39.859Z,12.50
2018-12-18T12:19:08.459Z,12.60
2018-12-18T12:21:37.247Z,12.50
2018-12-18T12:24:05.872Z,12.50
2018-12-18T12:26:34.733Z,12.50
2018-12-18T12:29:03.557Z,12.40
2018-12-18T12:31:32.162Z,12.50
2018-12-18T12:34:00.806Z,12.50
2018-12-18T12:36:29.745Z,12.40
2018-12-18T12:38:58.740Z,12.40
2018-12-18T12:41:27.650Z,12.40
2018-12-18T12:43:56.028Z,12.60
2018-12-18T12:46:24.609Z,12.70
2018-12-18T12:48:54.308Z,12.90
2018-12-18T12:51:23.366Z,12.80
2018-12-18T12:53:52.114Z,12.90
2018-12-18T12:56:20.827Z,12.70
2018-12-18T12:58:51.120Z,12.60
2018-12-18T13:01:20.406Z,12.60
2018-12-18T13:03:48.888Z,12.60
2018-12-18T13:06:17.526Z,12.60
2018-12-18T13:08:46.255Z,12.50
2018-12-18T13:11:15.044Z,12.50
2018-12-18T13:13:43.694Z,12.60
2018-12-18T13:16:12.495Z,12.60
2018-12-18T13:18:41.145Z,12.70
2018-12-18T13:21:10.014Z,12.50
2018-12-18T13:23:38.677Z,12.50
2018-12-18T13:26:07.497Z,12.60
2018-12-18T13:28:36.141Z,12.60
2018-12-18T13:31:04.727Z,12.70
2018-12-18T13:33:33.498Z,12.80
2018-12-18T13:36:02.393Z,12.60
2018-12-18T13:38:31.191Z,12.70
2018-12-18T13:40:59.833Z,12.80
2018-12-18T13:43:28.480Z,12.70
2018-12-18T13:45:57.203Z,12.70
2018-12-18T13:48:25.830Z,12.80
2018-12-18T13:50:54.519Z,13.00
2018-12-18T13:53:23.185Z,13.10
2018-12-18T13:55:52.195Z,13.50
2018-12-18T13:58:20.876Z,13.80
2018-12-18T14:00:49.478Z,13.70
2018-12-18T14:03:18.244Z,13.90
2018-12-18T14:05:47.244Z,14.10
2018-12-18T14:08:15.828Z,14.10
2018-12-18T14:10:44.602Z,14.40
2018-12-18T14:13:13.501Z,14.20
2018-12-18T14:15:42.316Z,14.20
2018-12-18T14:18:11.003Z,14.10
2018-12-18T14:20:39.850Z,13.80
2018-12-18T14:23:08.543Z,13.70
2018-12-18T14:25:37.336Z,13.60
2018-12-18T14:28:06.280Z,13.60
2018-12-18T14:30:35.117Z,13.70
2018-12-18T14:33:03.903Z,13.50
2018-12-18T14:35:32.494Z,13.50
2018-12-18T14:38:01.254Z,13.30
2018-12-18T14:40:29.966Z,13.00
2018-12-18T14:42:58.541Z,13.00
2018-12-18T14:45:27.427Z,12.90
2018-12-18T14:47:56.150Z,12.90
2018-12-18T14:50:24.954Z,12.70
2018-12-18T14:52:53.782Z,12.70
2018-12-18T14:55:22.578Z,12.50
2018-12-18T14:57:51.357Z,12.30
2018-12-18T15:00:20.139Z,12.40
2018-12-18T15:02:48.729Z,12.30
2018-12-18T15:05:17.830Z,12.20
2018-12-18T15:07:46.503Z,12.10
2018-12-18T15:10:15.308Z,12.20
2018-12-18T15:12:48.858Z,12.10
2018-12-18T15:15:17.883Z,12.10
2018-12-18T15:17:46.763Z,12.00
2018-12-18T15:20:15.475Z,12.00
2018-12-18T15:22:44.273Z,12.10
2018-12-18T15:25:12.980Z,12.00
2018-12-18T15:27:41.730Z,12.00
2018-12-18T15:30:10.982Z,12.10
2018-12-18T15:32:39.729Z,12.20
2018-12-18T15:35:08.474Z,12.10
2018-12-18T15:37:37.314Z,12.00
2018-12-18T15:40:06.322Z,11.90
2018-12-18T15:42:34.763Z,11.90
2018-12-18T15:45:03.676Z,11.80
2018-12-18T15:47:32.427Z,12.00
2018-12-18T15:50:01.138Z,11.90
2018-12-18T15:52:30.020Z,11.90
2018-12-18T15:54:58.687Z,11.80
2018-12-18T15:57:28.762Z,11.80
2018-12-18T15:59:57.655Z,11.80
2018-12-18T16:02:26.281Z,11.80
2018-12-18T16:04:54.972Z,11.70
2018-12-18T16:07:23.710Z,11.70
2018-12-18T16:09:52.539Z,11.80
2018-12-18T16:12:21.201Z,11.60
2018-12-18T16:14:49.906Z,11.70
2018-12-18T16:17:18.640Z,11.60
2018-12-18T16:19:47.374Z,11.80
2018-12-18T16:22:16.071Z,11.60
2018-12-18T16:24:45.072Z,11.70
2018-12-18T16:27:13.868Z,11.70
2018-12-18T16:29:42.976Z,11.80
2018-12-18T16:32:11.747Z,11.80
2018-12-18T16:34:40.383Z,11.90
2018-12-18T16:37:09.323Z,11.80
2018-12-18T16:39:38.127Z,11.80
2018-12-18T16:42:06.733Z,11.90
2018-12-18T16:44:35.542Z,11.90
2018-12-18T16:47:04.486Z,12.00
2018-12-18T16:49:33.224Z,12.00
2018-12-18T16:52:01.961Z,12.00
2018-12-18T16:54:30.984Z,12.00
2018-12-18T16:56:59.827Z,12.10
2018-12-18T16:59:28.595Z,12.20
2018-12-18T17:01:57.487Z,12.20
2018-12-18T17:04:26.395Z,12.20
2018-12-18T17:06:57.502Z,12.10
2018-12-18T17:09:32.980Z,12.00
2018-12-18T17:12:01.676Z,12.20
2018-12-18T17:14:30.351Z,12.20
2018-12-18T17:16:58.833Z,12.10
2018-12-18T17:19:27.515Z,12.20
2018-12-18T17:21:56.507Z,12.10
2018-12-18T17:24:25.501Z,12.20
2018-12-18T17:26:54.257Z,12.20
2018-12-18T17:29:22.802Z,12.30
2018-12-18T17:31:51.658Z,12.30
2018-12-18T17:34:20.458Z,12.20
2018-12-18T17:36:49.236Z,12.20
2018-12-18T17:39:18.195Z,12.20
2018-12-18T17:41:46.791Z,12.20
2018-12-18T17:44:15.494Z,12.10
2018-12-18T17:46:44.231Z,12.20
2018-12-18T17:49:12.941Z,12.00
2018-12-18T17:51:41.839Z,12.10
2018-12-18T17:54:10.666Z,12.00
2018-12-18T17:56:39.329Z,11.90
2018-12-18T17:59:07.990Z,12.00
2018-12-18T18:01:36.818Z,12.00
2018-12-18T18:04:05.381Z,12.00
2018-12-18T18:06:34.042Z,12.00
2018-12-18T18:09:02.756Z,12.00
2018-12-18T18:11:31.326Z,12.10
2018-12-18T18:14:00.174Z,12.10
2018-12-18T18:16:29.006Z,12.00
2018-12-18T18:18:57.599Z,11.70
2018-12-18T18:21:26.328Z,11.50
2018-12-18T18:23:55.075Z,11.40
2018-12-18T18:26:23.913Z,11.10
2018-12-18T18:28:52.526Z,11.00
2018-12-18T18:31:21.358Z,11.00
2018-12-18T18:33:50.029Z,10.80
2018-12-18T18:36:18.823Z,10.90
2018-12-18T18:38:47.480Z,10.90
2018-12-18T18:41:17.658Z,10.90
2018-12-18T18:43:55.286Z,10.80
2018-12-18T18:46:34.174Z,10.60
2018-12-18T18:49:12.375Z,10.80
2018-12-18T18:51:41.412Z,10.80
2018-12-18T18:54:10.059Z,10.90
2018-12-18T18:56:38.655Z,10.70
2018-12-18T18:59:07.269Z,10.70
2018-12-18T19:01:36.051Z,10.70
2018-12-18T19:04:04.999Z,10.60
2018-12-18T19:06:33.652Z,10.50
2018-12-18T19:09:02.352Z,10.70
2018-12-18T19:11:31.002Z,10.50
2018-12-18T19:13:59.685Z,10.40
2018-12-18T19:16:28.363Z,10.50
2018-12-18T19:18:57.039Z,10.50
2018-12-18T19:21:25.756Z,10.40
2018-12-18T19:23:54.491Z,10.40
2018-12-18T19:26:29.679Z,10.40
2018-12-18T19:28:58.419Z,10.40
2018-12-18T19:31:26.948Z,10.40
2018-12-18T19:33:55.578Z,10.30
2018-12-18T19:36:24.545Z,10.20
2018-12-18T19:38:53.255Z,10.30
2018-12-18T19:41:21.876Z,10.40
2018-12-18T19:43:50.663Z,10.40
2018-12-18T19:46:19.327Z,10.30
2018-12-18T19:48:48.038Z,10.50
2018-12-18T19:51:16.730Z,10.50
2018-12-18T19:53:45.523Z,10.50
2018-12-18T19:56:14.311Z,10.60
2018-12-18T19:58:43.149Z,10.60
2018-12-18T20:01:11.989Z,10.50
2018-12-18T20:03:40.662Z,10.60
2018-12-18T20:06:09.499Z,10.60
2018-12-18T20:08:38.190Z,10.60
2018-12-18T20:11:06.929Z,10.60
2018-12-18T20:13:35.838Z,10.70
2018-12-18T20:16:04.551Z,10.70
2018-12-18T20:18:33.243Z,10.70
2018-12-18T20:21:01.883Z,10.80
2018-12-18T20:23:30.627Z,10.70
2018-12-18T20:25:59.951Z,10.90
2018-12-18T20:28:28.602Z,10.90
2018-12-18T20:30:57.243Z,10.80
2018-12-18T20:33:25.860Z,10.70
2018-12-18T20:35:54.519Z,10.70
2018-12-18T20:38:23.389Z,10.70
2018-12-18T20:40:52.182Z,10.70
2018-12-18T20:43:20.907Z,10.50
2018-12-18T20:45:49.634Z,10.40
2018-12-18T20:48:18.454Z,10.50
2018-12-18T20:50:47.125Z,10.30
2018-12-18T20:53:15.862Z,10.30
2018-12-18T20:55:44.647Z,10.20
2018-12-18T20:58:14.234Z,10.20
2018-12-18T21:00:43.056Z,10.30
2018-12-18T21:03:11.716Z,10.30
2018-12-18T21:05:40.822Z,10.20
2018-12-18T21:08:09.767Z,10.20
2018-12-18T21:10:38.509Z,10.20
2018-12-18T21:13:12.772Z,10.40
2018-12-18T21:15:41.692Z,10.30
2018-12-18T21:18:10.358Z,10.20
2018-12-18T21:20:39.217Z,10.10
2018-12-18T21:23:07.878Z,10.10
2018-12-18T21:25:36.690Z,10.10
2018-12-18T21:28:05.493Z,10.00
2018-12-18T21:30:34.253Z,9.80
2018-12-18T21:33:02.791Z,9.90
2018-12-18T21:35:31.517Z,9.80
2018-12-18T21:38:00.262Z,9.80
2018-12-18T21:40:29.037Z,9.80
2018-12-18T21:42:57.699Z,9.90
2018-12-18T21:45:26.533Z,9.70
2018-12-18T21:47:55.368Z,9.70
2018-12-18T21:50:24.060Z,9.60
2018-12-18T21:52:52.799Z,9.60
2018-12-18T21:55:21.453Z,9.50
2018-12-18T21:57:51.315Z,9.50
2018-12-18T22:00:20.025Z,9.40
2018-12-18T22:02:48.833Z,9.40
2018-12-18T22:05:17.611Z,9.30
2018-12-18T22:07:46.365Z,9.20
2018-12-18T22:10:14.879Z,9.30
2018-12-18T22:12:43.815Z,9.30
2018-12-18T22:15:12.652Z,9.30
2018-12-18T22:17:41.549Z,9.30
2018-12-18T22:20:11.047Z,9.30
2018-12-18T22:22:39.711Z,9.40
2018-12-18T22:25:08.234Z,9.30
2018-12-18T22:27:37.097Z,9.50
2018-12-18T22:30:07.326Z,9.40
2018-12-18T22:32:36.228Z,9.40
2018-12-18T22:35:05.033Z,9.40
2018-12-18T22:37:33.795Z,9.40
2018-12-18T22:40:02.732Z,9.30
2018-12-18T22:42:32.049Z,9.40
2018-12-18T22:45:03.151Z,9.30
2018-12-18T22:47:31.903Z,9.20
2018-12-18T22:50:02.212Z,9.20
2018-12-18T22:52:31.031Z,9.20
2018-12-18T22:54:59.922Z,9.10
2018-12-18T22:57:28.673Z,9.10
2018-12-18T22:59:57.294Z,9.10
2018-12-18T23:02:26.185Z,9.20
2018-12-18T23:04:54.975Z,9.20
2018-12-18T23:07:23.760Z,9.20
2018-12-18T23:09:52.454Z,9.10
2018-12-18T23:12:21.115Z,9.10
2018-12-18T23:14:49.980Z,9.00
2018-12-18T23:17:18.753Z,9.10
2018-12-18T23:19:47.342Z,9.10
2018-12-18T23:22:15.864Z,9.10
2018-12-18T23:24:44.909Z,9.00
2018-12-18T23:27:13.544Z,8.80
2018-12-18T23:29:42.214Z,8.80
2018-12-18T23:32:10.904Z,8.70
2018-12-18T23:34:39.638Z,8.70
2018-12-18T23:37:08.260Z,8.80
2018-12-18T23:39:36.793Z,9.00
2018-12-18T23:42:05.670Z,9.00
2018-12-18T23:44:34.409Z,9.00
2018-12-18T23:47:03.232Z,8.90
2018-12-18T23:49:32.019Z,8.90
2018-12-18T23:52:00.687Z,8.80
2018-12-18T23:54:29.450Z,8.70
2018-12-18T23:56:58.077Z,8.70
2018-12-18T23:59:26.810Z,8.50
